createdAt,value
2022-08-05T00:01:28.103Z,85.29
2022-08-05T00:06:33.232Z,84.34
2022-08-05T00:11:49.497Z,83.82
2022-08-05T00:17:01.973Z,84.21
2022-08-05T00:22:06.067Z,85.68
2022-08-05T00:27:16.585Z,86.53
2022-08-05T00:32:20.373Z,88.60
2022-08-05T00:37:35.574Z,88.93
2022-08-05T00:42:53.495Z,89.64
2022-08-05T00:48:05.500Z,90.79
2022-08-05T00:53:09.892Z,91.81
2022-08-05T00:58:33.834Z,92.24
2022-08-05T01:03:36.873Z,93.04
2022-08-05T01:08:44.341Z,93.26
2022-08-05T01:13:59.895Z,94.38
2022-08-05T01:19:14.310Z,93.53
2022-08-05T01:24:34.602Z,93.17
2022-08-05T01:29:44.892Z,93.10
2022-08-05T01:34:56.763Z,93.94
2022-08-05T01:40:01.031Z,94.96
2022-08-05T01:45:08.077Z,92.89
2022-08-05T01:50:16.025Z,96.07
2022-08-05T01:55:23.973Z,95.17
2022-08-05T02:00:31.136Z,95.53
2022-08-05T02:05:37.933Z,95.04
2022-08-05T02:10:52.448Z,95.68
2022-08-05T02:16:05.041Z,97.03
2022-08-05T02:21:15.533Z,95.74
2022-08-05T02:26:23.308Z,97.01
2022-08-05T02:31:34.863Z,97.75
2022-08-05T02:36:42.776Z,98.44
2022-08-05T02:42:00.614Z,99.09
2022-08-05T02:47:08.657Z,98.17
2022-08-05T02:52:29.475Z,98.24
2022-08-05T02:58:10.734Z,98.10
2022-08-05T03:03:01.658Z,97.75
2022-08-05T03:08:08.513Z,96.90
2022-08-05T03:13:16.903Z,98.40
2022-08-05T03:18:24.750Z,98.42
2022-08-05T03:23:34.288Z,97.86
2022-08-05T03:28:38.460Z,97.35
2022-08-05T03:33:51.102Z,98.22
2022-08-05T03:38:54.707Z,98.18
2022-08-05T03:44:08.461Z,98.24
2022-08-05T03:49:16.058Z,98.24
2022-08-05T03:55:34.325Z,98.08
2022-08-05T03:59:55.012Z,97.07
2022-08-05T04:05:01.304Z,98.25
2022-08-05T04:10:05.022Z,98.86
2022-08-05T04:15:09.022Z,99.76
2022-08-05T04:20:22.141Z,99.92
2022-08-05T04:25:56.670Z,99.38
2022-08-05T04:30:49.850Z,99.27
2022-08-05T04:36:11.290Z,99.56
2022-08-05T04:41:17.501Z,99.65
2022-08-05T04:46:28.164Z,100.00
2022-08-05T04:51:33.099Z,99.10
2022-08-05T04:56:37.854Z,98.44
2022-08-05T05:02:07.817Z,99.02
2022-08-05T05:07:09.434Z,99.50
2022-08-05T05:12:29.237Z,100.00
2022-08-05T05:17:55.488Z,100.00
2022-08-05T05:23:08.415Z,99.46
2022-08-05T05:28:23.005Z,98.24
2022-08-05T05:33:27.873Z,99.02
2022-08-05T05:38:32.246Z,98.38
2022-08-05T05:43:56.663Z,98.12
2022-08-05T05:48:58.417Z,98.08
2022-08-05T05:54:11.519Z,96.95
2022-08-05T05:59:14.652Z,96.74
2022-08-05T06:04:17.708Z,96.10
2022-08-05T06:09:25.852Z,94.86
2022-08-05T06:14:40.273Z,94.21
2022-08-05T06:19:43.470Z,93.32
2022-08-05T06:25:00.828Z,93.50
2022-08-05T06:30:20.228Z,93.15
2022-08-05T06:36:07.469Z,90.39
2022-08-05T06:40:49.399Z,90.21
2022-08-05T06:46:06.866Z,89.63
2022-08-05T06:51:23.882Z,88.97
2022-08-05T06:56:35.203Z,85.74
2022-08-05T07:01:40.772Z,85.50
2022-08-05T07:06:45.497Z,84.13
2022-08-05T07:11:55.856Z,82.17
2022-08-05T07:17:59.794Z,81.55
2022-08-05T07:22:28.271Z,81.35
2022-08-05T07:27:57.086Z,80.90
2022-08-05T07:32:57.386Z,78.96
2022-08-05T07:38:00.658Z,78.26
2022-08-05T07:43:14.638Z,76.88
2022-08-05T07:49:03.026Z,75.48
2022-08-05T07:53:50.638Z,73.88
2022-08-05T07:58:58.977Z,71.98
2022-08-05T08:04:03.111Z,70.50
2022-08-05T08:09:07.322Z,68.90
2022-08-05T08:14:11.802Z,67.76
2022-08-05T08:20:22.899Z,60.89
2022-08-05T08:24:51.235Z,56.77
2022-08-05T08:30:05.503Z,55.43
2022-08-05T08:35:20.809Z,53.18
2022-08-05T08:40:31.483Z,53.04
2022-08-05T08:45:38.672Z,52.22
2022-08-05T08:51:03.355Z,51.54
2022-08-05T08:56:09.200Z,54.68
2022-08-05T09:01:15.746Z,55.25
2022-08-05T09:06:21.382Z,49.78
2022-08-05T09:11:50.685Z,52.43
2022-08-05T09:16:52.927Z,49.92
2022-08-05T09:22:22.001Z,49.86
2022-08-05T09:28:03.847Z,50.33
2022-08-05T09:33:02.733Z,52.58
2022-08-05T09:38:17.690Z,52.09
2022-08-05T09:43:40.804Z,51.57
2022-08-05T09:49:03.696Z,50.69
2022-08-05T09:54:11.505Z,48.66
2022-08-05T09:59:17.316Z,48.17
2022-08-05T10:04:29.184Z,48.91
2022-08-05T10:09:44.871Z,47.25
2022-08-05T10:14:48.556Z,46.95
2022-08-05T10:20:03.754Z,47.23
2022-08-05T10:25:14.257Z,46.94
2022-08-05T10:31:20.587Z,50.62
2022-08-05T10:35:44.340Z,54.86
2022-08-05T10:40:58.141Z,54.95
2022-08-05T10:46:06.435Z,53.51
2022-08-05T10:51:22.295Z,54.65
2022-08-05T10:56:27.304Z,55.24
2022-08-05T11:01:55.095Z,52.69
2022-08-05T11:07:11.966Z,52.38
2022-08-05T11:12:50.226Z,52.61
2022-08-05T11:17:59.858Z,50.71
2022-08-05T11:24:04.527Z,48.71
2022-08-05T11:29:12.757Z,47.67
2022-08-05T11:34:22.521Z,43.98
2022-08-05T11:39:55.645Z,43.74
2022-08-05T11:45:14.358Z,43.28
2022-08-05T11:50:26.371Z,42.95
2022-08-05T11:55:31.938Z,38.20
2022-08-05T12:00:41.269Z,42.13
2022-08-05T12:05:44.854Z,40.79
2022-08-05T12:10:50.619Z,41.04
2022-08-05T12:15:55.866Z,41.26
2022-08-05T12:21:11.014Z,41.55
2022-08-05T12:26:16.799Z,42.55
2022-08-05T12:31:23.675Z,40.79
2022-08-05T12:36:38.228Z,42.24
2022-08-05T12:41:43.918Z,41.11
2022-08-05T12:46:53.949Z,40.74
2022-08-05T12:52:12.660Z,41.63
2022-08-05T12:57:23.223Z,43.57
2022-08-05T13:02:30.747Z,43.71
2022-08-05T13:07:59.751Z,42.71
2022-08-05T13:12:58.790Z,43.90
2022-08-05T13:18:01.872Z,42.90
2022-08-05T13:23:07.379Z,43.08
2022-08-05T13:28:12.950Z,41.06
2022-08-05T13:34:24.440Z,40.47
2022-08-05T13:38:42.653Z,39.34
2022-08-05T13:43:54.804Z,40.85
2022-08-05T13:49:01.021Z,42.23
2022-08-05T13:54:12.594Z,39.23
2022-08-05T13:59:19.427Z,38.57
2022-08-05T14:04:41.148Z,39.16
2022-08-05T14:09:46.361Z,40.37
2022-08-05T14:14:51.559Z,41.28
2022-08-05T14:20:00.847Z,41.60
2022-08-05T14:25:19.011Z,42.90
2022-08-05T14:30:27.907Z,43.82
2022-08-05T14:35:36.257Z,43.51
2022-08-05T14:40:54.191Z,43.88
2022-08-05T14:45:58.744Z,43.67
2022-08-05T14:51:03.149Z,45.50
2022-08-05T14:56:06.705Z,47.45
2022-08-05T15:01:16.199Z,47.63
2022-08-05T15:06:20.850Z,50.81
2022-08-05T15:11:53.037Z,51.48
2022-08-05T15:16:57.933Z,50.95
2022-08-05T15:22:01.669Z,50.46
2022-08-05T15:27:05.135Z,51.18
2022-08-05T15:32:13.501Z,50.16
2022-08-05T15:37:22.208Z,51.76
2022-08-05T15:42:55.072Z,51.04
2022-08-05T15:48:05.597Z,51.06
2022-08-05T15:53:10.852Z,50.18
2022-08-05T15:58:16.581Z,48.47
2022-08-05T16:03:21.600Z,47.22
2022-08-05T16:08:24.611Z,47.53
2022-08-05T16:13:34.754Z,47.48
2022-08-05T16:18:52.285Z,47.63
2022-08-05T16:23:58.061Z,46.94
2022-08-05T16:29:04.621Z,47.14
2022-08-05T16:34:12.718Z,46.64
2022-08-05T16:39:18.147Z,43.56
2022-08-05T16:44:25.686Z,43.76
2022-08-05T16:49:30.129Z,41.82
2022-08-05T16:54:33.324Z,42.49
2022-08-05T17:00:03.043Z,44.14
2022-08-05T17:05:00.582Z,45.60
2022-08-05T17:10:03.953Z,45.41
2022-08-05T17:15:09.254Z,45.26
2022-08-05T17:20:14.755Z,46.00
2022-08-05T17:25:33.691Z,46.62
2022-08-05T17:30:50.346Z,47.41
2022-08-05T17:36:08.422Z,47.82
2022-08-05T17:42:16.368Z,49.53
2022-08-05T17:46:36.569Z,49.85
2022-08-05T17:51:41.127Z,50.46
2022-08-05T17:56:44.618Z,51.05
2022-08-05T18:01:50.174Z,50.94
2022-08-05T18:06:54.552Z,50.93
2022-08-05T18:12:03.862Z,52.15
2022-08-05T18:17:07.086Z,51.69
2022-08-05T18:22:36.220Z,51.83
2022-08-05T18:27:39.453Z,52.04
2022-08-05T18:33:00.193Z,53.58
2022-08-05T18:38:05.639Z,54.66
2022-08-05T18:43:09.189Z,55.46
2022-08-05T18:48:31.550Z,56.16
2022-08-05T18:53:43.121Z,56.37
2022-08-05T18:58:50.845Z,57.42
2022-08-05T19:03:56.820Z,58.00
2022-08-05T19:09:01.557Z,58.21
2022-08-05T19:14:15.217Z,58.96
2022-08-05T19:19:27.536Z,59.13
2022-08-05T19:24:35.182Z,59.30
2022-08-05T19:29:38.816Z,59.67
2022-08-05T19:34:42.082Z,59.95
2022-08-05T19:40:00.572Z,60.43
2022-08-05T19:45:06.428Z,61.40
2022-08-05T19:50:10.567Z,60.98
2022-08-05T19:56:13.641Z,61.77
2022-08-05T20:00:39.599Z,62.01
2022-08-05T20:05:50.377Z,62.09
2022-08-05T20:10:56.722Z,62.57
2022-08-05T20:16:00.195Z,62.63
2022-08-05T20:21:04.693Z,64.16
2022-08-05T20:26:16.474Z,65.75
2022-08-05T20:31:28.453Z,66.29
2022-08-05T20:36:44.899Z,67.31
2022-08-05T20:41:49.281Z,68.20
2022-08-05T20:46:52.477Z,67.87
2022-08-05T20:51:57.348Z,67.88
2022-08-05T20:57:03.473Z,69.78
2022-08-05T21:02:06.658Z,70.69
2022-08-05T21:07:09.967Z,71.63
2022-08-05T21:12:19.386Z,71.72
2022-08-05T21:17:22.452Z,70.66
2022-08-05T21:22:25.572Z,70.66
2022-08-05T21:27:38.641Z,71.05
2022-08-05T21:32:42.083Z,70.94
2022-08-05T21:37:52.949Z,70.57
2022-08-05T21:42:59.093Z,72.54
2022-08-05T21:48:02.527Z,70.79
2022-08-05T21:53:17.506Z,72.90
2022-08-05T21:58:28.832Z,71.94
2022-08-05T22:03:48.444Z,73.61
2022-08-05T22:08:54.741Z,73.16
2022-08-05T22:14:19.654Z,73.36
2022-08-05T22:20:03.179Z,72.78
2022-08-05T22:25:03.320Z,72.56
2022-08-05T22:30:09.242Z,72.57
2022-08-05T22:35:14.175Z,72.67
2022-08-05T22:40:20.434Z,73.08
2022-08-05T22:45:26.534Z,73.87
2022-08-05T22:50:29.513Z,74.56
2022-08-05T22:55:56.413Z,74.41
2022-08-05T23:00:57.123Z,74.28
2022-08-05T23:06:00.188Z,74.25
2022-08-05T23:11:04.208Z,74.13
2022-08-05T23:16:09.190Z,74.62
2022-08-05T23:21:12.124Z,74.52
2022-08-05T23:26:19.974Z,74.83
2022-08-05T23:31:25.981Z,75.61
2022-08-05T23:36:39.865Z,75.96
2022-08-05T23:41:48.700Z,75.99
2022-08-05T23:46:53.341Z,76.99
2022-08-05T23:52:16.693Z,76.69
2022-08-05T23:57:19.596Z,77.46
